createdAt,value
2023-01-03T00:00:00.311Z,26
2023-01-03T00:10:00.246Z,51
2023-01-03T00:20:00.226Z,43
2023-01-03T00:30:00.285Z,26
2023-01-03T00:40:00.306Z,26
2023-01-03T00:50:00.267Z,43
2023-01-03T01:00:00.266Z,44
2023-01-03T01:10:00.249Z,63
2023-01-03T01:20:00.346Z,49
2023-01-03T01:30:00.260Z,42
2023-01-03T01:40:00.256Z,44
2023-01-03T01:50:00.324Z,80
2023-01-03T02:00:00.559Z,41
2023-01-03T02:10:00.567Z,42
2023-01-03T02:20:00.515Z,49
2023-01-03T02:30:00.523Z,61
2023-01-03T02:40:00.979Z,60
2023-01-03T02:50:00.451Z,51
2023-01-03T03:00:00.760Z,57
2023-01-03T03:10:00.623Z,58
2023-01-03T03:20:04.690Z,57
2023-01-03T03:30:00.335Z,57
2023-01-03T03:40:00.291Z,60
2023-01-03T03:50:00.265Z,58
2023-01-03T04:00:00.302Z,55
2023-01-03T04:10:00.245Z,55
2023-01-03T04:20:00.271Z,59
2023-01-03T04:30:00.317Z,57
2023-01-03T04:40:00.432Z,58
2023-01-03T04:50:00.228Z,69
2023-01-03T05:00:00.279Z,77
2023-01-03T05:10:00.269Z,139
2023-01-03T05:20:00.233Z,89
2023-01-03T05:30:00.239Z,134
2023-01-03T05:40:00.254Z,137
2023-01-03T05:50:00.241Z,73
2023-01-03T06:00:00.267Z,85
2023-01-03T06:10:00.258Z,81
2023-01-03T06:20:00.234Z,104
2023-01-03T06:30:00.241Z,78
2023-01-03T06:40:00.258Z,151
2023-01-03T06:50:00.255Z,89
2023-01-03T07:00:00.338Z,112
2023-01-03T07:10:00.498Z,74
2023-01-03T07:20:00.665Z,94
2023-01-03T07:30:00.401Z,76
2023-01-03T07:40:00.858Z,122
2023-01-03T07:50:00.945Z,124
2023-01-03T08:00:00.578Z,95
2023-01-03T08:10:00.444Z,151
2023-01-03T08:20:00.354Z,97
2023-01-03T08:30:00.353Z,153
2023-01-03T08:40:00.276Z,185
2023-01-03T08:50:00.241Z,116
2023-01-03T09:00:00.313Z,218
2023-01-03T09:10:00.235Z,152
2023-01-03T09:20:00.248Z,87
2023-01-03T09:30:00.243Z,87
2023-01-03T09:40:00.278Z,59
2023-01-03T09:50:35.025Z,78
2023-01-03T10:00:00.250Z,86
2023-01-03T10:10:00.262Z,99
2023-01-03T10:20:00.245Z,77
2023-01-03T10:30:00.254Z,87
2023-01-03T10:40:00.247Z,121
2023-01-03T10:50:00.267Z,47
2023-01-03T11:00:00.272Z,84
2023-01-03T11:10:00.454Z,74
2023-01-03T11:20:00.248Z,71
2023-01-03T11:30:00.253Z,85
2023-01-03T11:40:00.268Z,66
2023-01-03T11:50:00.278Z,102
2023-01-03T12:00:01.953Z,57
2023-01-03T12:30:00.269Z,92
2023-01-03T12:40:00.253Z,103
2023-01-03T12:50:00.867Z,76
2023-01-03T13:00:00.266Z,167
2023-01-03T13:10:01.479Z,86
2023-01-03T13:20:00.274Z,81
2023-01-03T13:30:00.231Z,82
2023-01-03T13:40:00.261Z,130
2023-01-03T13:50:00.263Z,176
2023-01-03T14:00:00.229Z,65
2023-01-03T14:10:00.306Z,145
2023-01-03T14:20:00.268Z,327
2023-01-03T14:30:00.382Z,262
2023-01-03T14:40:00.266Z,371
2023-01-03T14:50:00.269Z,329
2023-01-03T15:00:00.450Z,210
2023-01-03T15:10:00.249Z,170
2023-01-03T15:20:00.260Z,254
2023-01-03T15:30:00.249Z,217
2023-01-03T15:40:00.387Z,310
2023-01-03T15:50:00.459Z,405
2023-01-03T16:00:00.734Z,233
2023-01-03T16:10:00.562Z,143
2023-01-03T16:20:00.653Z,116
2023-01-03T16:30:00.369Z,169
2023-01-03T16:40:00.934Z,252
2023-01-03T16:50:00.429Z,236
2023-01-03T17:00:00.320Z,129
2023-01-03T17:10:00.256Z,126
2023-01-03T17:20:05.553Z,313
2023-01-03T17:30:00.263Z,248
2023-01-03T17:40:00.281Z,129
2023-01-03T17:50:00.238Z,87
2023-01-03T18:00:00.267Z,171
2023-01-03T18:10:00.248Z,89
2023-01-03T18:20:00.259Z,177
2023-01-03T18:30:00.253Z,73
2023-01-03T18:40:00.247Z,132
2023-01-03T18:50:00.241Z,119
2023-01-03T19:00:00.246Z,99
2023-01-03T19:10:00.256Z,214
2023-01-03T19:20:00.291Z,119
2023-01-03T19:30:00.267Z,102
2023-01-03T19:40:00.273Z,178
2023-01-03T19:50:03.771Z,270
2023-01-03T20:00:00.243Z,152
2023-01-03T20:10:00.254Z,97
2023-01-03T20:20:00.269Z,71
2023-01-03T20:30:00.247Z,102
2023-01-03T20:40:00.451Z,74
2023-01-03T20:50:00.544Z,116
2023-01-03T21:00:00.830Z,164
2023-01-03T21:10:00.519Z,192
2023-01-03T21:20:00.383Z,163
2023-01-03T21:30:01.009Z,170
2023-01-03T21:40:00.792Z,111
2023-01-03T21:50:00.304Z,86
2023-01-03T22:00:00.289Z,31
2023-01-03T22:10:00.253Z,6
2023-01-03T22:20:00.269Z,15
2023-01-03T22:30:00.243Z,17
2023-01-03T22:40:00.272Z,23
2023-01-03T22:50:00.266Z,26
2023-01-03T23:00:00.358Z,29
2023-01-03T23:10:00.268Z,30
2023-01-03T23:20:00.287Z,31
2023-01-03T23:30:00.346Z,30
2023-01-03T23:40:00.258Z,26
2023-01-03T23:50:00.262Z,25
